Airport View

Enter AWOS ICAO identifier for current METAR.

ex. KFNL

KICT 191253Z 08011KT 10SM FEW120 BKN150 OVC180 M04/M07 A3032 RMK AO2 SLP285 T10441072

19 Feb 2019 13:24

Phone: 316-945-8022

Other Area AWOS: KIAB - KBEC - KAAO - K1K1

TAF KICT 191120Z 1912/2012 06010KT P6SM OVC100 FM192100 09010KT 3SM -SN SCT015 OVC025 FM192200 08009KT 1 1/2SM -SN OVC009 FM200000 08008KT 3/4SM -SN OVC007 FM200400 08006KT 3SM -FZDZSN OVC005 FM200900 VRB05KT 5SM BR OVC005